Airfield :
LOGIN :

Register | Disclaimer

   EN    FR    IT 

 










Legend :    VFR   Marginal VFR   IFR   Intensive IFR   Very Intensive IFR
Visi :
Ceiling :
>= 8 km
>= 3000ft
5 to 8 km
1000 to 3000 ft
1500m to 5 km
500 to 1000 ft
800 to 1500m
200 to 500 ft
< 800m
< 200 ft
Symbols :   Thunderstorms  Fog  Heavy snow  Heavy precipitations  Wind > 20 kt
SIGMETs :     Misc.  Thunderstorms  Icing  Turbulence  Mountain Waves  Volcanic Ashes






- Airport Elevation : 202 ft
- IATA code : LGW


EGKK - London Gatwick

CURRENT METAR :
  • 120620Z VRB02KT 9999 FEW036 01/01 Q0999

EXPIRED METARs :
  • 120550Z 30002KT CAVOK M02/M02 Q0999
  • 120520Z 17003KT CAVOK 01/01 Q1000
  • 120450Z 16003KT CAVOK 00/00 Q1001
  • 120420Z 12001KT CAVOK M00/M01 Q1001
  • 120350Z 17002KT CAVOK 00/M00 Q1002

TAF TAF EGKK
Valid from the 12 at 06:00 until the 13 at 12:00 UTC


120500Z 1206/1312 16003KT 9999 SCT035
TEMPO 1206/1207 6000
PROB30
TEMPO 1206/1207 0500 FZFG BKN000
BECMG 1207/1211 17013KT BKN014
PROB40
TEMPO 1207/1211 7000 -RA
TEMPO 1211/1220 17016G26KT 4000 RA BKN007
BECMG 1216/1220 26010KT SCT016
PROB40
TEMPO 1220/1303 26016G26KT 4000 +SHRA BKN012
TEMPO 1303/1309 26018G28KT
BECMG 1309/1312 26018G28KT



MET'MAP, your aeronautical weather chart ! - Copyright ORBIFLY December 2007 - Disclaimer

ORBIFLY MET'MAP TEAM :

Programming & Development : Alexandra Zaïnal
Concept & original design : Baudouin d'Aumeries
Assistance for programming : Marc-Olivier Méhu
Technical & hardware support : Manuel Goepfert

Contact : metmap@orbifly.com




SOURCES & CREDITS :

   NOAA